createdAt,value
2018-11-25T00:00:16.618Z,36.67
2018-11-25T00:02:48.442Z,35.70
2018-11-25T00:05:19.785Z,37.83
2018-11-25T00:07:48.227Z,41.60
2018-11-25T00:10:17.595Z,42.50
2018-11-25T00:12:46.049Z,43.93
2018-11-25T00:15:14.555Z,43.70
2018-11-25T00:17:42.979Z,45.23
2018-11-25T00:20:13.997Z,43.50
2018-11-25T00:22:42.939Z,36.73
2018-11-25T00:25:12.347Z,36.63
2018-11-25T00:27:40.768Z,38.97
2018-11-25T00:30:12.954Z,38.33
2018-11-25T00:32:42.577Z,41.87
2018-11-25T00:35:12.446Z,42.13
2018-11-25T00:37:47.923Z,43.33
2018-11-25T00:40:12.240Z,46.90
2018-11-25T00:42:40.817Z,45.00
2018-11-25T00:45:11.003Z,43.83
2018-11-25T00:47:39.446Z,39.73
2018-11-25T00:50:09.903Z,42.80
2018-11-25T00:52:38.309Z,42.77
2018-11-25T00:55:09.760Z,50.30
2018-11-25T00:57:38.240Z,39.17
2018-11-25T01:00:11.026Z,41.80
2018-11-25T01:02:45.734Z,45.37
2018-11-25T01:05:14.203Z,41.47
2018-11-25T01:07:42.727Z,50.23
2018-11-25T01:10:12.554Z,45.27
2018-11-25T01:12:40.954Z,41.77
2018-11-25T01:15:11.355Z,39.80
2018-11-25T01:17:39.824Z,40.93
2018-11-25T01:20:18.160Z,47.10
2018-11-25T01:22:46.683Z,51.43
2018-11-25T01:25:15.194Z,60.30
2018-11-25T01:27:43.645Z,48.57
2018-11-25T01:30:16.770Z,70.10
2018-11-25T01:32:45.608Z,60.07
2018-11-25T01:35:14.543Z,71.17
2018-11-25T01:37:43.310Z,48.77
2018-11-25T01:40:13.858Z,48.53
2018-11-25T01:42:42.343Z,53.73
2018-11-25T01:45:12.933Z,46.13
2018-11-25T01:47:41.442Z,55.13
2018-11-25T01:50:11.535Z,50.07
2018-11-25T01:52:39.954Z,44.93
2018-11-25T01:55:17.940Z,60.37
2018-11-25T01:57:46.514Z,46.33
2018-11-25T02:00:16.133Z,44.20
2018-11-25T02:02:44.605Z,45.07
2018-11-25T02:05:14.061Z,45.27
2018-11-25T02:07:42.517Z,47.27
2018-11-25T02:10:16.186Z,50.43
2018-11-25T02:12:44.703Z,55.07
2018-11-25T02:15:14.370Z,48.50
2018-11-25T02:17:42.945Z,47.40
2018-11-25T02:20:13.958Z,59.40
2018-11-25T02:22:42.451Z,49.90
2018-11-25T02:25:10.891Z,43.50
2018-11-25T02:27:39.354Z,39.50
2018-11-25T02:30:11.218Z,49.43
2018-11-25T02:32:39.683Z,52.97
2018-11-25T02:35:09.733Z,59.13
2018-11-25T02:37:38.321Z,66.10
2018-11-25T02:40:09.178Z,57.20
2018-11-25T02:42:37.590Z,71.13
2018-11-25T02:45:09.911Z,54.73
2018-11-25T02:47:38.397Z,53.07
2018-11-25T02:50:13.743Z,69.93
2018-11-25T02:52:42.187Z,59.17
2018-11-25T02:55:16.430Z,53.67
2018-11-25T02:57:44.874Z,58.83
2018-11-25T03:00:13.338Z,56.70
2018-11-25T03:02:41.790Z,68.63
2018-11-25T03:05:10.246Z,69.23
2018-11-25T03:07:38.698Z,71.33
2018-11-25T03:10:07.706Z,62.17
2018-11-25T03:12:36.134Z,58.60
2018-11-25T03:15:08.008Z,51.80
2018-11-25T03:17:36.463Z,68.80
2018-11-25T03:20:07.579Z,50.53
2018-11-25T03:22:36.022Z,56.97
2018-11-25T03:25:05.024Z,66.97
2018-11-25T03:27:33.482Z,67.17
2018-11-25T03:30:01.979Z,65.80
2018-11-25T03:32:30.509Z,53.47
2018-11-25T03:34:58.978Z,61.40
2018-11-25T03:37:27.539Z,55.33
2018-11-25T03:39:55.997Z,59.13
2018-11-25T03:42:24.446Z,53.03
2018-11-25T03:44:52.922Z,57.83
2018-11-25T03:47:21.375Z,61.30
2018-11-25T03:49:49.902Z,58.63
2018-11-25T03:52:18.313Z,65.70
2018-11-25T03:54:46.746Z,74.93
2018-11-25T03:57:15.172Z,54.20
2018-11-25T03:59:43.607Z,50.90
2018-11-25T04:02:12.030Z,49.33
2018-11-25T04:04:40.481Z,52.77
2018-11-25T04:07:08.978Z,61.53
2018-11-25T04:09:37.535Z,54.50
2018-11-25T04:12:06.023Z,53.93
2018-11-25T04:14:34.482Z,39.77
2018-11-25T04:17:02.890Z,56.57
2018-11-25T04:19:34.688Z,55.63
2018-11-25T04:22:03.134Z,47.60
2018-11-25T04:24:31.580Z,58.93
2018-11-25T04:27:00.012Z,61.23
2018-11-25T04:29:28.467Z,53.23
2018-11-25T04:31:56.886Z,49.97
2018-11-25T04:34:25.346Z,45.10
2018-11-25T04:36:53.748Z,56.10
2018-11-25T04:39:22.295Z,56.47
2018-11-25T04:41:50.713Z,56.27
2018-11-25T04:44:19.163Z,53.43
2018-11-25T04:46:47.629Z,53.30
2018-11-25T04:49:16.066Z,52.20
2018-11-25T04:51:44.480Z,52.07
2018-11-25T04:54:19.486Z,58.03
2018-11-25T04:56:48.225Z,71.83
2018-11-25T04:59:17.283Z,67.50
2018-11-25T05:01:45.730Z,73.97
2018-11-25T05:04:14.210Z,65.80
2018-11-25T05:06:42.668Z,76.70
2018-11-25T05:09:11.111Z,79.57
2018-11-25T05:11:39.544Z,101.00
2018-11-25T05:14:08.001Z,104.37
2018-11-25T05:16:36.510Z,117.33
2018-11-25T05:19:05.051Z,109.00
2018-11-25T05:21:33.519Z,104.70
2018-11-25T05:24:01.970Z,111.93
2018-11-25T05:26:30.423Z,111.87
2018-11-25T05:28:58.883Z,113.50
2018-11-25T05:31:27.334Z,98.10
2018-11-25T05:33:55.762Z,145.57
2018-11-25T05:36:24.555Z,170.53
2018-11-25T05:38:53.236Z,96.30
2018-11-25T05:41:21.687Z,83.73
2018-11-25T05:43:50.158Z,124.57
2018-11-25T05:46:18.603Z,107.53
2018-11-25T05:48:47.010Z,120.97
2018-11-25T05:51:15.450Z,116.73
2018-11-25T05:53:43.885Z,134.10
2018-11-25T05:56:12.743Z,110.77
2018-11-25T05:58:41.223Z,118.27
2018-11-25T06:01:09.649Z,98.77
2018-11-25T06:03:38.170Z,102.67
2018-11-25T06:06:06.672Z,92.77
2018-11-25T06:08:35.106Z,99.07
2018-11-25T06:11:03.577Z,125.57
2018-11-25T06:13:32.421Z,111.50
2018-11-25T06:16:00.851Z,138.57
2018-11-25T06:18:29.284Z,126.23
2018-11-25T06:20:57.873Z,125.90
2018-11-25T06:23:26.411Z,106.60
2018-11-25T06:25:54.848Z,160.80
2018-11-25T06:28:23.278Z,105.60
2018-11-25T06:30:52.076Z,160.23
2018-11-25T06:33:20.673Z,181.97
2018-11-25T06:35:49.145Z,112.37
2018-11-25T06:38:17.665Z,108.90
2018-11-25T06:40:46.109Z,119.07
2018-11-25T06:43:14.592Z,105.87
2018-11-25T06:45:43.058Z,118.10
2018-11-25T06:48:11.661Z,136.80
2018-11-25T06:50:39.987Z,200.27
2018-11-25T06:53:08.430Z,215.87
2018-11-25T06:55:37.010Z,137.67
2018-11-25T06:58:05.497Z,146.07
2018-11-25T07:00:33.965Z,126.87
2018-11-25T07:03:02.589Z,136.20
2018-11-25T07:05:31.005Z,104.70
2018-11-25T07:08:15.832Z,115.23
2018-11-25T07:10:52.043Z,117.43
2018-11-25T07:13:20.511Z,137.87
2018-11-25T07:18:26.807Z,140.93
2018-11-25T07:20:55.243Z,124.93
2018-11-25T07:23:23.694Z,141.10
2018-11-25T07:25:52.219Z,130.33
2018-11-25T07:28:20.813Z,149.57
2018-11-25T07:30:49.302Z,140.20
2018-11-25T07:33:17.753Z,131.50
2018-11-25T07:35:46.202Z,140.53
2018-11-25T07:38:14.617Z,202.17
2018-11-25T07:40:43.053Z,148.37
2018-11-25T07:43:11.505Z,121.03
2018-11-25T07:45:39.917Z,119.77
2018-11-25T07:48:08.410Z,168.93
2018-11-25T07:50:36.910Z,125.47
2018-11-25T07:53:05.461Z,127.70
2018-11-25T07:55:33.909Z,122.87
2018-11-25T07:58:05.342Z,193.43
2018-11-25T08:00:33.941Z,128.40
2018-11-25T08:03:02.448Z,113.87
2018-11-25T08:05:31.000Z,154.53
2018-11-25T08:08:00.508Z,136.73
2018-11-25T08:10:29.178Z,122.83
2018-11-25T08:12:58.455Z,125.70
2018-11-25T08:15:26.944Z,163.40
2018-11-25T08:17:56.345Z,123.30
2018-11-25T08:20:24.779Z,173.60
2018-11-25T08:22:53.321Z,102.23
2018-11-25T08:25:22.314Z,173.73
2018-11-25T08:27:50.810Z,130.20
2018-11-25T08:30:20.249Z,97.10
2018-11-25T08:32:48.980Z,86.60
2018-11-25T08:35:17.912Z,109.77
2018-11-25T08:37:46.448Z,123.80
2018-11-25T08:40:19.012Z,86.40
2018-11-25T08:42:47.541Z,90.20
2018-11-25T08:45:16.085Z,68.90
2018-11-25T08:47:44.763Z,79.10
2018-11-25T08:50:14.298Z,100.10
2018-11-25T08:52:43.692Z,118.13
2018-11-25T08:55:14.302Z,94.33
2018-11-25T08:57:42.751Z,95.47
2018-11-25T09:00:17.927Z,118.87
2018-11-25T09:02:46.563Z,123.40
2018-11-25T09:05:28.259Z,101.53
2018-11-25T09:07:56.698Z,113.27
2018-11-25T09:10:25.098Z,174.13
2018-11-25T09:13:09.513Z,126.37
2018-11-25T09:15:39.257Z,145.13
2018-11-25T09:18:08.693Z,122.83
2018-11-25T09:20:38.446Z,133.73
2018-11-25T09:23:40.163Z,141.47
2018-11-25T09:26:08.578Z,141.73
2018-11-25T09:28:37.050Z,140.73
2018-11-25T09:31:05.946Z,124.97
2018-11-25T09:33:36.246Z,101.87
2018-11-25T09:36:08.588Z,113.10
2018-11-25T09:39:01.297Z,139.53
2018-11-25T09:41:29.821Z,118.93
2018-11-25T09:43:58.309Z,120.97
2018-11-25T09:46:27.045Z,134.80
2018-11-25T09:48:55.539Z,198.43
2018-11-25T09:51:24.189Z,126.43
2018-11-25T09:53:52.608Z,122.97
2018-11-25T09:56:21.097Z,129.53
2018-11-25T09:58:49.792Z,111.47
2018-11-25T10:01:18.781Z,135.73
2018-11-25T10:03:47.242Z,122.13
2018-11-25T10:06:15.695Z,113.20
2018-11-25T10:08:45.499Z,97.67
2018-11-25T10:11:14.004Z,97.90
2018-11-25T10:13:43.484Z,121.33
2018-11-25T10:16:11.930Z,108.30
2018-11-25T10:18:40.567Z,93.30
2018-11-25T10:21:14.075Z,96.17
2018-11-25T10:23:42.483Z,96.57
2018-11-25T10:26:10.910Z,108.80
2018-11-25T10:28:39.346Z,103.77
2018-11-25T10:31:08.395Z,113.07
2018-11-25T10:33:36.828Z,135.37
2018-11-25T10:36:05.305Z,106.03
2018-11-25T10:38:33.760Z,137.30
2018-11-25T10:41:02.252Z,74.40
2018-11-25T10:43:35.022Z,120.03
2018-11-25T10:46:03.517Z,88.57
2018-11-25T10:48:32.064Z,96.57
2018-11-25T10:51:00.571Z,116.67
2018-11-25T10:53:29.073Z,99.40
2018-11-25T10:55:57.571Z,95.83
2018-11-25T10:58:26.014Z,98.23
2018-11-25T11:00:54.591Z,132.97
2018-11-25T11:03:29.464Z,141.30
2018-11-25T11:06:03.251Z,120.17
2018-11-25T11:08:31.706Z,107.93
2018-11-25T11:11:00.354Z,96.90
2018-11-25T11:13:30.196Z,116.07
2018-11-25T11:15:58.897Z,117.40
2018-11-25T11:18:27.387Z,107.40
2018-11-25T11:20:55.890Z,152.90
2018-11-25T11:23:24.484Z,117.40
2018-11-25T11:25:52.966Z,103.30
2018-11-25T11:28:23.073Z,135.07
2018-11-25T11:30:51.586Z,110.37
2018-11-25T11:33:20.125Z,136.77
2018-11-25T11:35:48.569Z,104.23
2018-11-25T11:38:17.135Z,102.63
2018-11-25T11:40:45.842Z,119.03
2018-11-25T11:43:14.394Z,135.63
2018-11-25T11:45:42.921Z,98.07
2018-11-25T11:48:11.431Z,115.83
2018-11-25T11:50:40.858Z,92.70
2018-11-25T11:53:14.672Z,113.50
2018-11-25T11:55:43.134Z,134.10
2018-11-25T11:58:12.660Z,132.50
2018-11-25T12:00:41.114Z,106.47
2018-11-25T12:03:09.534Z,97.90
2018-11-25T12:05:38.050Z,111.87
2018-11-25T12:08:06.810Z,121.07
2018-11-25T12:10:35.248Z,127.87
2018-11-25T12:13:03.771Z,104.30
2018-11-25T12:15:32.428Z,111.30
2018-11-25T12:18:00.935Z,120.60
2018-11-25T12:20:30.618Z,119.47
2018-11-25T12:23:09.336Z,118.47
2018-11-25T12:25:39.130Z,109.40
2018-11-25T12:28:22.335Z,131.27
2018-11-25T12:31:01.982Z,119.40
2018-11-25T12:33:30.540Z,131.67
2018-11-25T12:35:59.063Z,121.20
2018-11-25T12:38:27.570Z,134.63
2018-11-25T12:40:56.078Z,127.57
2018-11-25T12:43:24.795Z,125.17
2018-11-25T12:45:53.289Z,134.87
2018-11-25T12:48:21.862Z,117.77
2018-11-25T12:50:51.392Z,115.30
2018-11-25T12:53:20.062Z,103.30
2018-11-25T12:55:48.946Z,116.13
2018-11-25T12:58:17.427Z,118.33
2018-11-25T13:00:47.873Z,108.50
2018-11-25T13:03:16.466Z,115.50
2018-11-25T13:05:46.383Z,102.73
2018-11-25T13:08:14.496Z,121.00
2018-11-25T13:10:43.151Z,116.60
2018-11-25T13:13:12.251Z,130.40
2018-11-25T13:15:40.747Z,102.27
2018-11-25T13:18:10.031Z,131.27
2018-11-25T13:20:38.659Z,101.83
2018-11-25T13:23:08.098Z,112.97
2018-11-25T13:25:36.651Z,110.13
2018-11-25T13:28:05.250Z,124.27
2018-11-25T13:30:33.865Z,113.47
2018-11-25T13:33:03.211Z,104.90
2018-11-25T13:35:34.179Z,114.73
2018-11-25T13:38:02.698Z,121.63
2018-11-25T13:40:31.209Z,102.13
2018-11-25T13:43:00.634Z,117.60
2018-11-25T13:45:29.109Z,95.03
2018-11-25T13:47:57.609Z,112.13
2018-11-25T13:50:26.168Z,119.93
2018-11-25T13:52:54.660Z,101.23
2018-11-25T13:55:24.769Z,128.50
2018-11-25T13:57:53.538Z,93.60
2018-11-25T14:00:54.733Z,112.13
2018-11-25T14:03:26.542Z,127.23
2018-11-25T14:05:55.446Z,101.90
2018-11-25T14:08:23.942Z,113.13
2018-11-25T14:11:12.975Z,101.37
2018-11-25T14:13:41.519Z,82.57
2018-11-25T14:16:12.226Z,90.90
2018-11-25T14:18:42.304Z,93.80
2018-11-25T14:21:10.815Z,90.47
2018-11-25T14:23:39.447Z,105.30
2018-11-25T14:26:23.515Z,82.23
2018-11-25T14:28:52.051Z,97.23
2018-11-25T14:31:20.627Z,80.00
2018-11-25T14:33:49.202Z,94.83
2018-11-25T14:36:17.715Z,134.67
2018-11-25T14:38:46.216Z,108.50
2018-11-25T14:41:14.674Z,90.60
2018-11-25T14:43:43.160Z,96.13
2018-11-25T14:46:11.638Z,113.57
2018-11-25T14:48:40.953Z,91.07
2018-11-25T14:51:12.248Z,118.33
2018-11-25T14:53:40.819Z,104.33
2018-11-25T14:56:09.437Z,100.87
2018-11-25T14:58:38.078Z,113.00
2018-11-25T15:01:06.728Z,110.97
2018-11-25T15:03:35.221Z,114.00
2018-11-25T15:06:03.797Z,102.53
2018-11-25T15:08:32.449Z,102.47
2018-11-25T15:11:00.996Z,107.87
2018-11-25T15:13:29.511Z,106.13
2018-11-25T15:15:59.582Z,129.37
2018-11-25T15:18:28.033Z,117.00
2018-11-25T15:20:56.743Z,99.30
2018-11-25T15:23:25.463Z,102.60
2018-11-25T15:25:55.198Z,119.17
2018-11-25T15:28:23.670Z,111.20
2018-11-25T15:30:52.704Z,114.70
2018-11-25T15:33:23.320Z,102.70
2018-11-25T15:35:51.860Z,123.43
2018-11-25T15:38:21.486Z,102.17
2018-11-25T15:40:49.999Z,105.20
2018-11-25T15:43:18.544Z,118.07
2018-11-25T15:45:47.128Z,125.13
2018-11-25T15:48:27.206Z,103.33
2018-11-25T15:50:55.736Z,122.23
2018-11-25T15:53:24.240Z,109.77
2018-11-25T15:55:55.436Z,109.80
2018-11-25T15:58:24.763Z,112.67
2018-11-25T16:00:53.374Z,118.17
2018-11-25T16:03:21.945Z,98.60
2018-11-25T16:06:00.010Z,111.70
2018-11-25T16:08:28.548Z,112.90
2018-11-25T16:10:57.227Z,101.57
2018-11-25T16:13:26.391Z,100.60
2018-11-25T16:15:58.214Z,115.93
2018-11-25T16:18:26.790Z,106.30
2018-11-25T16:20:55.286Z,113.27
2018-11-25T16:23:23.754Z,111.57
2018-11-25T16:25:54.106Z,106.10
2018-11-25T16:28:28.403Z,129.50
2018-11-25T16:30:56.915Z,121.20
2018-11-25T16:33:25.475Z,99.83
2018-11-25T16:35:53.969Z,109.97
2018-11-25T16:38:22.498Z,105.90
2018-11-25T16:40:51.327Z,121.30
2018-11-25T16:43:19.833Z,124.50
2018-11-25T16:45:48.375Z,122.33
2018-11-25T16:48:16.940Z,112.50
2018-11-25T16:50:45.450Z,115.27
2018-11-25T16:53:13.938Z,121.90
2018-11-25T16:55:42.542Z,121.20
2018-11-25T16:58:11.033Z,92.17
2018-11-25T17:00:39.560Z,110.93
2018-11-25T17:03:08.204Z,109.90
2018-11-25T17:05:38.827Z,115.77
2018-11-25T17:08:27.092Z,98.77
2018-11-25T17:10:55.634Z,107.83
2018-11-25T17:13:24.103Z,91.90
2018-11-25T17:15:52.610Z,101.63
2018-11-25T17:18:21.140Z,105.17
2018-11-25T17:20:49.670Z,94.20
2018-11-25T17:23:18.162Z,91.10
2018-11-25T17:25:47.390Z,118.23
2018-11-25T17:28:15.913Z,111.37
2018-11-25T17:30:44.619Z,116.47
2018-11-25T17:33:13.233Z,121.90
2018-11-25T17:35:41.769Z,123.23
2018-11-25T17:38:10.266Z,132.83
2018-11-25T17:40:38.876Z,147.73
2018-11-25T17:43:12.413Z,123.40
2018-11-25T17:45:40.967Z,146.57
2018-11-25T17:48:09.463Z,144.27
2018-11-25T17:50:37.966Z,117.63
2018-11-25T17:53:07.079Z,186.17
2018-11-25T17:55:35.625Z,125.80
2018-11-25T17:58:04.218Z,180.43
2018-11-25T18:00:38.088Z,155.27
2018-11-25T18:03:10.012Z,155.20
2018-11-25T18:05:38.996Z,124.47
2018-11-25T18:08:07.175Z,152.50
2018-11-25T18:10:35.777Z,142.33
2018-11-25T18:13:05.926Z,120.40
2018-11-25T18:15:34.490Z,181.70
2018-11-25T18:18:05.758Z,124.40
2018-11-25T18:20:39.705Z,129.53
2018-11-25T18:23:08.962Z,153.23
2018-11-25T18:25:37.411Z,155.10
2018-11-25T18:28:06.026Z,140.93
2018-11-25T18:30:34.527Z,112.93
2018-11-25T18:33:03.228Z,137.43
2018-11-25T18:35:31.754Z,122.20
2018-11-25T18:38:00.359Z,134.70
2018-11-25T18:40:28.928Z,126.07
2018-11-25T18:42:58.321Z,161.87
2018-11-25T18:45:26.814Z,139.63
2018-11-25T18:47:55.391Z,126.20
2018-11-25T18:50:23.924Z,107.40
2018-11-25T18:52:53.851Z,137.63
2018-11-25T18:55:21.193Z,146.40
2018-11-25T18:57:49.810Z,117.47
2018-11-25T19:00:26.171Z,102.53
2018-11-25T19:02:54.702Z,114.13
2018-11-25T19:05:24.055Z,87.47
2018-11-25T19:07:51.806Z,103.03
2018-11-25T19:10:20.400Z,96.27
2018-11-25T19:12:49.931Z,94.53
2018-11-25T19:15:19.420Z,94.70
2018-11-25T19:17:50.436Z,94.53
2018-11-25T19:20:30.096Z,118.67
2018-11-25T19:22:59.388Z,108.60
2018-11-25T19:25:27.906Z,109.70
2018-11-25T19:27:57.224Z,110.17
2018-11-25T19:30:26.792Z,119.73
2018-11-25T19:32:54.322Z,101.37
2018-11-25T19:35:23.346Z,113.63
2018-11-25T19:37:52.488Z,91.77
2018-11-25T19:40:26.018Z,85.70
2018-11-25T19:42:54.636Z,73.50
2018-11-25T19:45:24.415Z,85.47
2018-11-25T19:47:54.925Z,76.83
2018-11-25T19:50:27.051Z,94.17
2018-11-25T19:52:55.534Z,69.23
2018-11-25T19:55:24.025Z,75.13
2018-11-25T19:57:52.482Z,79.53
2018-11-25T20:00:22.390Z,79.43
2018-11-25T20:02:51.023Z,76.40
2018-11-25T20:05:19.597Z,78.07
2018-11-25T20:07:48.252Z,99.10
2018-11-25T20:10:19.425Z,77.33
2018-11-25T20:12:52.269Z,77.00
2018-11-25T20:15:21.049Z,82.50
2018-11-25T20:17:54.600Z,77.57
2018-11-25T20:20:19.507Z,85.73
2018-11-25T20:22:48.378Z,87.13
2018-11-25T20:25:17.341Z,78.93
2018-11-25T20:27:50.080Z,75.73
2018-11-25T20:30:21.691Z,81.23
2018-11-25T20:32:58.579Z,85.63
2018-11-25T20:35:27.611Z,97.67
2018-11-25T20:38:02.126Z,74.43
2018-11-25T20:40:34.868Z,89.63
2018-11-25T20:43:03.497Z,91.10
2018-11-25T20:45:39.160Z,86.03
2018-11-25T20:48:06.014Z,87.47
2018-11-25T20:50:34.515Z,88.40
2018-11-25T20:53:10.716Z,90.30
2018-11-25T20:55:39.256Z,91.77
2018-11-25T20:58:08.903Z,87.33
2018-11-25T21:00:38.214Z,96.27
2018-11-25T21:03:08.742Z,90.23
2018-11-25T21:05:37.283Z,109.50
2018-11-25T21:08:06.791Z,88.30
2018-11-25T21:10:35.281Z,90.07
2018-11-25T21:13:03.815Z,95.90
2018-11-25T21:15:32.296Z,72.63
2018-11-25T21:18:00.816Z,90.40
2018-11-25T21:20:29.266Z,95.47
2018-11-25T21:22:57.735Z,102.67
2018-11-25T21:25:26.220Z,95.57
2018-11-25T21:27:54.701Z,91.50
2018-11-25T21:30:25.419Z,93.20
2018-11-25T21:32:55.256Z,111.23
2018-11-25T21:35:23.737Z,92.20
2018-11-25T21:37:52.229Z,93.53
2018-11-25T21:40:22.131Z,116.97
2018-11-25T21:42:50.687Z,106.43
2018-11-25T21:45:20.748Z,97.00
2018-11-25T21:47:49.439Z,95.90
2018-11-25T21:50:21.566Z,89.60
2018-11-25T21:52:50.070Z,89.40
2018-11-25T21:55:18.877Z,94.60
2018-11-25T21:57:47.414Z,83.33
2018-11-25T22:00:17.926Z,101.00
2018-11-25T22:02:46.709Z,86.83
2018-11-25T22:05:15.561Z,90.83
2018-11-25T22:07:44.122Z,94.63
2018-11-25T22:10:13.948Z,90.27
2018-11-25T22:12:42.826Z,97.93
2018-11-25T22:15:14.308Z,90.50
2018-11-25T22:17:42.917Z,89.63
2018-11-25T22:20:12.457Z,97.60
2018-11-25T22:22:40.946Z,88.53
2018-11-25T22:25:12.625Z,82.40
2018-11-25T22:27:41.116Z,81.63
2018-11-25T22:30:11.447Z,90.20
2018-11-25T22:32:39.934Z,88.30
2018-11-25T22:35:12.698Z,92.83
2018-11-25T22:37:42.068Z,86.23
2018-11-25T22:40:10.915Z,86.00
2018-11-25T22:42:40.163Z,88.13
2018-11-25T22:45:10.929Z,76.13
2018-11-25T22:47:39.454Z,96.83
2018-11-25T22:50:12.405Z,71.43
2018-11-25T22:52:40.922Z,85.77
2018-11-25T22:55:13.859Z,83.57
2018-11-25T22:57:42.402Z,78.40
2018-11-25T23:00:23.747Z,79.23
2018-11-25T23:02:52.197Z,83.03
2018-11-25T23:05:31.861Z,93.27
2018-11-25T23:08:00.383Z,80.03
2018-11-25T23:10:28.909Z,97.23
2018-11-25T23:12:57.459Z,72.23
2018-11-25T23:15:25.944Z,66.93
2018-11-25T23:17:54.390Z,81.03
2018-11-25T23:20:22.885Z,78.60
2018-11-25T23:22:51.662Z,84.87
2018-11-25T23:25:20.178Z,68.47
2018-11-25T23:27:48.639Z,71.73
2018-11-25T23:30:17.142Z,78.20
2018-11-25T23:32:45.612Z,64.10
2018-11-25T23:35:18.730Z,64.13
2018-11-25T23:37:47.174Z,75.10
2018-11-25T23:40:15.661Z,58.93
2018-11-25T23:42:44.203Z,59.87
2018-11-25T23:45:13.973Z,64.73
2018-11-25T23:47:42.539Z,48.50
2018-11-25T23:50:12.022Z,63.43
2018-11-25T23:52:41.037Z,57.23
2018-11-25T23:55:11.611Z,60.67
2018-11-25T23:57:40.324Z,61.50
